Time;durP1;ratioP1;P1;durP2;ratioP2;P2;SDS_P1;SDS_P2;PMS_P1;PMS_P2;Temp;Humidity;BMP_temperature;BMP_pressure;BME280_temperature;BME280_humidity;BME280_pressure;Samples;Min_cycle;Max_cycle;Signal;HPM_P1;HPM_P2
2021/12/31 00:00:19;;;;;;;0.90;0.77;;;13.60;99.90;;;;;;4973468;28;20078;-75
2021/12/31 00:02:45;;;;;;;1.25;1.00;;;13.70;99.90;;;;;;4973746;28;20031;-76
2021/12/31 00:05:11;;;;;;;2.10;1.02;;;13.80;99.90;;;;;;4973226;28;20400;-77
2021/12/31 00:07:37;;;;;;;0.93;0.70;;;13.80;99.90;;;;;;4976939;28;20053;-76
2021/12/31 00:10:04;;;;;;;2.35;0.75;;;13.70;99.90;;;;;;4983678;28;20038;-78
2021/12/31 00:12:30;;;;;;;2.03;1.85;;;13.70;99.90;;;;;;4979308;28;20053;-77
2021/12/31 00:14:57;;;;;;;2.10;1.00;;;13.70;99.90;;;;;;4989924;28;20034;-75
2021/12/31 00:17:23;;;;;;;1.63;0.73;;;13.60;99.90;;;;;;4974605;28;20057;-77
2021/12/31 00:19:58;;;;;;;1.50;1.00;;;13.60;99.90;;;;;;4968102;28;20117;-77
2021/12/31 00:22:50;;;;;;;0.70;0.70;;;13.60;99.90;;;;;;4979552;28;20018;-77
2021/12/31 00:25:12;;;;;;;1.92;0.90;;;13.50;99.90;;;;;;4975097;28;20038;-76
2021/12/31 00:27:38;;;;;;;0.80;0.77;;;13.50;99.90;;;;;;4977898;28;20106;-77
2021/12/31 00:30:05;;;;;;;1.20;0.88;;;13.40;99.90;;;;;;4974472;28;20094;-76
2021/12/31 00:32:31;;;;;;;1.13;0.90;;;13.40;99.90;;;;;;4983208;28;20030;-77
2021/12/31 00:34:57;;;;;;;1.45;0.98;;;13.40;99.90;;;;;;4972375;28;20439;-77
2021/12/31 00:37:35;;;;;;;1.17;0.93;;;13.40;99.90;;;;;;4983464;28;20026;-78
2021/12/31 00:40:02;;;;;;;1.27;0.70;;;13.40;99.90;;;;;;4981807;28;20026;-86
2021/12/31 00:42:28;;;;;;;0.90;0.90;;;13.40;99.90;;;;;;4990339;28;20051;-86
2021/12/31 00:44:54;;;;;;;2.88;0.80;;;13.50;99.90;;;;;;4995052;28;20029;-85
2021/12/31 00:47:19;;;;;;;2.03;1.00;;;13.50;99.90;;;;;;4991112;28;20058;-85
2021/12/31 00:49:46;;;;;;;1.17;0.75;;;13.40;99.90;;;;;;4984959;28;20035;-86
2021/12/31 00:52:11;;;;;;;0.95;0.90;;;13.40;99.90;;;;;;4984856;28;20617;-86
2021/12/31 00:54:38;;;;;;;1.77;0.82;;;13.30;99.90;;;;;;4989667;28;20034;-86
2021/12/31 00:57:04;;;;;;;1.25;0.80;;;13.40;99.90;;;;;;4979021;28;20085;-86
2021/12/31 00:59:31;;;;;;;2.03;0.90;;;13.40;99.90;;;;;;4979211;28;20034;-85
2021/12/31 01:01:58;;;;;;;1.13;0.73;;;13.40;99.90;;;;;;4991974;28;20637;-84
2021/12/31 01:04:24;;;;;;;2.08;1.08;;;13.20;99.90;;;;;;4976572;28;20033;-84
2021/12/31 01:06:50;;;;;;;1.30;0.77;;;13.30;99.90;;;;;;4973090;28;20490;-84
2021/12/31 01:09:15;;;;;;;0.70;0.70;;;13.30;99.90;;;;;;4970402;28;20038;-83
2021/12/31 01:11:47;;;;;;;2.10;1.00;;;13.10;99.90;;;;;;4973662;28;20039;-84
2021/12/31 01:14:27;;;;;;;1.85;1.50;;;13.10;99.90;;;;;;4978051;28;20022;-83
2021/12/31 01:16:58;;;;;;;1.03;0.80;;;13.10;99.90;;;;;;4974947;28;20038;-84
2021/12/31 01:21:51;;;;;;;1.30;1.00;;;13.10;99.90;;;;;;4981191;28;20050;-82
2021/12/31 01:24:18;;;;;;;2.38;0.80;;;13.10;99.90;;;;;;4973753;28;20046;-82
2021/12/31 01:26:59;;;;;;;1.67;1.00;;;13.10;99.90;;;;;;4973837;28;20434;-82
2021/12/31 01:29:24;;;;;;;1.13;0.80;;;13.10;99.90;;;;;;4966812;23;20031;-80
2021/12/31 01:31:53;;;;;;;1.65;1.00;;;13.10;99.90;;;;;;4997547;23;20465;-78
2021/12/31 01:34:22;;;;;;;0.95;0.80;;;13.10;99.90;;;;;;4979897;28;20032;-76
2021/12/31 01:36:48;;;;;;;1.13;0.93;;;13.00;1.00;;;;;;4961228;28;20126;-73
2021/12/31 01:39:14;;;;;;;1.95;1.15;;;13.00;1.00;;;;;;4991423;28;20042;-76
2021/12/31 01:41:40;;;;;;;1.00;0.70;;;12.90;1.00;;;;;;4973741;28;20047;-76
2021/12/31 01:44:06;;;;;;;2.42;1.13;;;12.90;1.00;;;;;;4981788;28;20031;-73
2021/12/31 01:46:35;;;;;;;0.88;0.70;;;12.80;1.00;;;;;;4978711;28;20023;-72
2021/12/31 01:49:03;;;;;;;2.00;1.20;;;12.80;1.00;;;;;;4973932;28;20026;-74
2021/12/31 01:51:30;;;;;;;1.05;0.95;;;12.70;1.00;;;;;;4977880;28;20046;-74
2021/12/31 01:53:55;;;;;;;0.85;0.80;;;12.60;1.00;;;;;;4980384;28;20050;-72
2021/12/31 01:56:23;;;;;;;3.40;0.88;;;12.50;1.00;;;;;;4982162;28;20014;-74
2021/12/31 01:58:57;;;;;;;2.70;0.85;;;12.50;1.00;;;;;;4984132;28;20014;-74
2021/12/31 02:01:23;;;;;;;1.75;0.77;;;12.40;1.00;;;;;;4979417;28;20037;-75
2021/12/31 02:03:52;;;;;;;2.08;1.00;;;12.30;1.00;;;;;;4982354;28;20015;-74
2021/12/31 02:06:19;;;;;;;2.17;1.00;;;12.40;1.00;;;;;;4986015;28;20355;-76
2021/12/31 02:08:44;;;;;;;1.27;0.98;;;12.40;1.00;;;;;;4973425;28;20026;-74
2021/12/31 02:11:10;;;;;;;3.28;1.10;;;12.30;1.00;;;;;;4977405;28;20451;-75
2021/12/31 02:13:36;;;;;;;1.48;1.13;;;12.30;1.00;;;;;;4977323;28;20035;-74
2021/12/31 02:16:03;;;;;;;0.90;0.80;;;12.30;1.00;;;;;;4979989;28;20026;-76
2021/12/31 02:18:30;;;;;;;2.05;0.80;;;12.30;1.00;;;;;;4991806;28;20038;-75
2021/12/31 02:20:57;;;;;;;1.50;1.20;;;12.20;1.00;;;;;;4983125;28;20023;-75
2021/12/31 02:23:26;;;;;;;1.23;0.80;;;12.10;1.00;;;;;;4981238;28;20030;-75
2021/12/31 02:25:53;;;;;;;2.53;0.95;;;12.10;1.00;;;;;;4973938;28;20476;-75
2021/12/31 02:28:19;;;;;;;1.10;0.80;;;12.00;1.00;;;;;;4968233;28;20035;-74
2021/12/31 02:30:46;;;;;;;0.93;0.90;;;12.00;1.00;;;;;;4975139;28;20031;-74
2021/12/31 02:33:12;;;;;;;2.65;1.20;;;11.90;1.00;;;;;;4989966;28;20027;-74
2021/12/31 02:35:38;;;;;;;1.02;0.80;;;11.80;1.00;;;;;;5007537;23;20059;-73
2021/12/31 02:38:05;;;;;;;1.40;0.80;;;11.70;1.00;;;;;;4978934;28;20039;-72
2021/12/31 02:40:32;;;;;;;1.60;0.90;;;11.60;1.00;;;;;;4988824;28;20031;-73
2021/12/31 02:42:58;;;;;;;1.92;1.15;;;11.70;1.00;;;;;;4995761;28;20023;-73
2021/12/31 02:45:34;;;;;;;2.13;1.00;;;11.70;1.00;;;;;;4971765;28;20034;-73
2021/12/31 02:48:02;;;;;;;1.13;0.98;;;11.50;1.00;;;;;;4972547;28;20031;-72
2021/12/31 02:50:35;;;;;;;1.35;0.90;;;11.50;1.00;;;;;;4968937;28;20069;-72
2021/12/31 02:53:05;;;;;;;0.80;0.80;;;11.40;1.00;;;;;;4967468;28;20407;-72
2021/12/31 02:55:33;;;;;;;1.48;1.05;;;11.40;1.00;;;;;;4969217;28;20102;-73
2021/12/31 02:57:59;;;;;;;3.00;1.00;;;11.20;1.00;;;;;;4970398;28;20489;-72
2021/12/31 03:00:26;;;;;;;2.95;1.30;;;11.20;1.00;;;;;;4970296;28;20015;-72
2021/12/31 03:02:52;;;;;;;1.35;1.05;;;11.10;1.00;;;;;;4971119;28;20103;-72
2021/12/31 03:05:19;;;;;;;2.28;0.80;;;11.10;1.00;;;;;;4975038;28;20081;-72
2021/12/31 03:07:47;;;;;;;1.55;1.00;;;11.10;1.00;;;;;;4974769;28;20118;-72
2021/12/31 03:10:14;;;;;;;2.75;1.15;;;11.10;1.00;;;;;;4973764;28;20031;-72
2021/12/31 03:12:41;;;;;;;2.17;0.85;;;11.00;1.00;;;;;;4974231;28;20490;-72
2021/12/31 03:15:08;;;;;;;1.23;1.02;;;11.00;1.00;;;;;;4972754;28;20035;-72
2021/12/31 03:17:35;;;;;;;1.67;1.10;;;10.90;1.00;;;;;;4973927;28;20039;-72
2021/12/31 03:20:24;;;;;;;3.22;1.13;;;10.90;1.00;;;;;;4973920;28;20061;-72
2021/12/31 03:22:50;;;;;;;4.85;1.20;;;10.80;1.00;;;;;;4969835;28;20081;-72
2021/12/31 03:25:15;;;;;;;1.23;1.05;;;10.60;1.00;;;;;;4973482;28;20062;-73
2021/12/31 03:27:41;;;;;;;1.38;1.02;;;10.60;1.00;;;;;;4973188;28;20391;-73
2021/12/31 03:30:10;;;;;;;1.77;0.98;;;10.60;1.00;;;;;;4972677;28;20101;-72
2021/12/31 03:32:35;;;;;;;1.17;0.90;;;10.50;1.00;;;;;;4969444;28;20471;-73
2021/12/31 03:35:01;;;;;;;1.35;1.13;;;10.60;1.00;;;;;;4969295;28;20030;-73
2021/12/31 03:37:27;;;;;;;1.65;0.95;;;10.50;1.00;;;;;;4970934;28;20019;-72
2021/12/31 03:39:52;;;;;;;1.45;1.00;;;10.60;1.00;;;;;;4973349;28;20493;-72
2021/12/31 03:42:18;;;;;;;2.90;0.95;;;10.60;1.00;;;;;;4969801;28;20101;-72
2021/12/31 03:44:44;;;;;;;1.38;1.20;;;10.60;1.00;;;;;;4973496;28;20386;-72
2021/12/31 03:47:10;;;;;;;1.23;0.85;;;10.70;1.00;;;;;;4964759;28;20039;-71
2021/12/31 03:49:35;;;;;;;1.27;0.98;;;10.70;1.00;;;;;;4978849;28;20446;-73
2021/12/31 03:52:01;;;;;;;3.05;1.35;;;10.70;1.00;;;;;;4962823;28;20102;-73
2021/12/31 03:54:26;;;;;;;1.95;1.10;;;10.70;1.00;;;;;;4971365;28;20023;-72
2021/12/31 03:56:52;;;;;;;4.25;1.30;;;10.70;1.00;;;;;;4968919;28;20041;-72
2021/12/31 03:59:18;;;;;;;2.15;1.35;;;10.80;1.00;;;;;;4971123;28;20022;-72
2021/12/31 04:01:43;;;;;;;1.13;0.95;;;10.80;1.00;;;;;;4967250;28;20029;-73
2021/12/31 04:04:09;;;;;;;2.35;1.20;;;10.90;1.00;;;;;;4965345;28;20026;-73
2021/12/31 04:06:35;;;;;;;2.20;1.05;;;10.90;1.00;;;;;;4965208;28;20542;-73
2021/12/31 04:09:01;;;;;;;4.07;1.45;;;10.90;1.00;;;;;;4967013;28;20172;-73
2021/12/31 04:11:26;;;;;;;2.20;1.13;;;10.80;1.00;;;;;;4964688;28;20038;-73
2021/12/31 04:13:52;;;;;;;2.60;1.25;;;10.80;1.00;;;;;;4972436;28;20014;-73
2021/12/31 04:16:18;;;;;;;2.47;1.02;;;10.80;1.00;;;;;;4968221;28;20101;-72
2021/12/31 04:18:43;;;;;;;2.70;1.25;;;10.70;1.00;;;;;;4973484;28;20118;-73
2021/12/31 04:21:09;;;;;;;2.55;1.25;;;10.70;1.00;;;;;;4970587;28;20023;-73
2021/12/31 04:23:47;;;;;;;2.15;1.08;;;10.60;1.00;;;;;;4966022;28;20034;-73
2021/12/31 04:26:14;;;;;;;1.15;0.98;;;10.60;45.30;;;;;;4967269;28;20030;-73
2021/12/31 04:28:40;;;;;;;3.42;1.35;;;10.60;50.20;;;;;;4971822;28;20030;-71
2021/12/31 04:31:05;;;;;;;1.70;1.30;;;10.60;50.90;;;;;;4972700;28;20085;-72
2021/12/31 04:33:31;;;;;;;2.80;1.17;;;10.60;86.80;;;;;;4964368;28;20081;-72
2021/12/31 04:35:57;;;;;;;1.05;0.95;;;10.50;64.10;;;;;;4964621;28;20031;-72
2021/12/31 04:38:23;;;;;;;1.75;1.40;;;10.50;70.70;;;;;;4973124;28;20077;-73
2021/12/31 04:40:49;;;;;;;1.38;1.00;;;10.50;93.20;;;;;;4968909;28;20019;-72
2021/12/31 04:43:14;;;;;;;2.45;0.98;;;10.50;49.50;;;;;;4960604;28;20082;-72
2021/12/31 04:45:40;;;;;;;1.35;1.17;;;10.50;66.70;;;;;;4972638;28;20087;-73
2021/12/31 04:48:05;;;;;;;2.67;1.05;;;10.50;94.80;;;;;;4968154;28;20031;-72
2021/12/31 04:50:31;;;;;;;1.95;1.00;;;10.50;93.90;;;;;;4966100;28;20103;-72
2021/12/31 04:52:57;;;;;;;1.85;1.10;;;10.40;87.30;;;;;;4966593;28;20081;-72
2021/12/31 04:55:23;;;;;;;1.42;1.15;;;10.40;88.50;;;;;;4973446;28;20077;-73
2021/12/31 04:57:49;;;;;;;3.83;1.25;;;10.50;47.20;;;;;;4975136;28;20023;-72
2021/12/31 05:00:15;;;;;;;2.13;1.45;;;10.40;21.40;;;;;;4974712;28;20023;-72
2021/12/31 05:02:41;;;;;;;4.35;1.20;;;10.30;19.60;;;;;;4975521;28;20031;-72
2021/12/31 05:05:07;;;;;;;1.27;1.17;;;10.30;9.00;;;;;;4970297;28;20026;-73
2021/12/31 05:07:33;;;;;;;2.95;1.20;;;10.20;26.30;;;;;;4973180;28;20023;-72
2021/12/31 05:09:58;;;;;;;2.33;1.33;;;10.20;40.80;;;;;;4976096;28;20549;-72
2021/12/31 05:12:30;;;;;;;3.42;0.98;;;10.10;41.30;;;;;;4972642;28;20545;-72
2021/12/31 05:14:55;;;;;;;3.38;1.10;;;10.00;51.90;;;;;;4970453;28;20027;-72
2021/12/31 05:17:21;;;;;;;3.20;1.42;;;9.90;41.70;;;;;;4971851;28;20430;-72
2021/12/31 05:19:48;;;;;;;1.45;1.08;;;9.90;42.40;;;;;;4974227;28;20070;-72
2021/12/31 05:22:14;;;;;;;2.42;1.35;;;9.70;37.90;;;;;;4972138;28;20077;-72
2021/12/31 05:24:40;;;;;;;3.03;1.20;;;9.60;26.20;;;;;;4984437;28;20027;-72
2021/12/31 05:27:07;;;;;;;1.77;1.17;;;9.60;39.60;;;;;;5000958;28;20050;-72
2021/12/31 05:29:33;;;;;;;3.85;1.48;;;9.60;34.30;;;;;;4999763;28;20058;-72
2021/12/31 05:31:59;;;;;;;1.45;1.33;;;9.50;33.60;;;;;;5009051;28;20034;-72
2021/12/31 05:34:25;;;;;;;6.30;1.88;;;9.40;39.40;;;;;;5006761;28;20305;-71
2021/12/31 05:36:50;;;;;;;3.80;2.08;;;9.30;46.10;;;;;;5011998;28;20030;-72
2021/12/31 05:39:16;;;;;;;2.85;1.52;;;9.30;41.30;;;;;;4992534;28;20035;-72
2021/12/31 05:41:42;;;;;;;2.97;1.50;;;9.20;49.40;;;;;;4976607;28;20022;-72
2021/12/31 05:44:08;;;;;;;1.63;1.20;;;9.10;44.20;;;;;;4978131;28;20031;-72
2021/12/31 05:46:34;;;;;;;3.20;1.73;;;9.10;48.60;;;;;;4994355;28;20014;-71
2021/12/31 05:49:00;;;;;;;5.30;1.90;;;9.10;57.90;;;;;;4995599;28;20027;-72
2021/12/31 05:51:27;;;;;;;2.17;1.23;;;9.00;73.20;;;;;;4992312;28;20037;-72
2021/12/31 05:53:53;;;;;;;1.63;1.38;;;9.00;60.60;;;;;;4995807;28;20053;-73
2021/12/31 05:56:19;;;;;;;8.63;1.73;;;9.10;78.80;;;;;;4990173;28;20030;-72
2021/12/31 05:58:45;;;;;;;3.20;1.58;;;9.20;99.90;;;;;;4980693;28;20027;-73
2021/12/31 06:01:10;;;;;;;1.90;1.60;;;9.40;99.90;;;;;;4976432;28;20026;-72
2021/12/31 06:03:36;;;;;;;2.00;1.27;;;9.40;99.90;;;;;;4977921;28;20103;-72
2021/12/31 06:06:02;;;;;;;2.25;1.45;;;9.40;99.90;;;;;;4971274;28;20038;-72
2021/12/31 06:08:27;;;;;;;2.88;1.23;;;9.40;99.90;;;;;;4975796;28;20116;-71
2021/12/31 06:10:53;;;;;;;5.10;1.67;;;9.30;99.90;;;;;;4973333;28;20087;-72
2021/12/31 06:13:19;;;;;;;2.53;1.30;;;9.40;99.90;;;;;;4976753;28;20110;-73
2021/12/31 06:15:47;;;;;;;2.42;1.58;;;9.40;99.90;;;;;;4975700;28;20030;-72
2021/12/31 06:18:13;;;;;;;1.73;1.30;;;9.30;99.90;;;;;;4972213;28;20042;-72
2021/12/31 06:20:41;;;;;;;1.20;1.10;;;9.30;99.90;;;;;;4975016;28;20415;-72
2021/12/31 06:23:07;;;;;;;5.05;1.70;;;9.30;99.90;;;;;;4976778;28;20130;-72
2021/12/31 06:25:33;;;;;;;5.05;3.55;;;9.30;99.90;;;;;;4977863;28;20102;-72
2021/12/31 06:28:00;;;;;;;1.80;1.35;;;9.30;99.90;;;;;;4977031;28;20031;-72
2021/12/31 06:30:26;;;;;;;2.92;2.30;;;9.30;99.90;;;;;;4977992;28;20512;-72
2021/12/31 06:32:52;;;;;;;3.97;2.00;;;9.30;99.90;;;;;;4976142;28;20038;-72
2021/12/31 06:35:18;;;;;;;3.63;1.65;;;9.30;99.90;;;;;;4977008;28;20138;-72
2021/12/31 06:37:43;;;;;;;2.55;1.30;;;9.30;99.90;;;;;;4979941;28;20030;-72
2021/12/31 06:40:11;;;;;;;4.25;1.75;;;9.30;99.90;;;;;;4973775;28;20078;-72
2021/12/31 06:42:36;;;;;;;2.05;1.38;;;9.50;99.90;;;;;;4975325;28;20023;-72
2021/12/31 06:45:03;;;;;;;2.05;1.30;;;9.60;99.90;;;;;;4971390;28;20041;-72
2021/12/31 06:47:28;;;;;;;3.90;1.45;;;9.50;99.90;;;;;;4977230;28;20101;-73
2021/12/31 06:49:54;;;;;;;4.22;1.40;;;9.60;99.90;;;;;;4973105;28;20110;-72
2021/12/31 06:52:19;;;;;;;3.50;1.75;;;9.60;99.90;;;;;;4972600;28;20039;-73
2021/12/31 06:54:45;;;;;;;2.47;1.58;;;9.70;99.90;;;;;;4972120;28;20045;-72
2021/12/31 06:57:10;;;;;;;3.28;1.60;;;9.60;99.90;;;;;;4974883;28;20030;-72
2021/12/31 06:59:36;;;;;;;2.80;1.80;;;9.50;99.90;;;;;;4971328;28;20023;-72
2021/12/31 07:02:02;;;;;;;3.05;1.67;;;9.50;99.90;;;;;;4971907;28;20030;-72
2021/12/31 07:04:27;;;;;;;4.50;1.90;;;9.50;99.90;;;;;;4968876;28;20445;-73
2021/12/31 07:06:53;;;;;;;2.85;1.98;;;9.50;99.90;;;;;;4968386;28;20042;-72
2021/12/31 07:09:18;;;;;;;3.20;2.13;;;9.40;99.90;;;;;;4974334;28;20105;-72
2021/12/31 07:11:44;;;;;;;3.53;2.05;;;9.20;99.90;;;;;;4973301;28;20022;-73
2021/12/31 07:14:09;;;;;;;3.72;2.13;;;9.10;99.90;;;;;;4971463;28;20494;-73
2021/12/31 07:16:35;;;;;;;5.25;2.40;;;8.90;99.90;;;;;;4973639;28;20390;-73
2021/12/31 07:19:00;;;;;;;4.00;2.10;;;8.90;99.90;;;;;;4973761;28;20027;-73
2021/12/31 07:21:26;;;;;;;3.00;2.72;;;8.80;99.90;;;;;;4975294;28;20026;-73
2021/12/31 07:23:52;;;;;;;4.35;2.20;;;8.80;99.90;;;;;;4971832;28;20050;-72
2021/12/31 07:26:17;;;;;;;5.30;2.83;;;8.70;99.90;;;;;;4973285;28;20457;-72
2021/12/31 07:28:43;;;;;;;3.75;2.45;;;8.70;99.90;;;;;;4973187;28;20026;-72
2021/12/31 07:31:12;;;;;;;4.20;2.15;;;8.70;99.90;;;;;;4967398;28;20498;-73
2021/12/31 07:33:37;;;;;;;3.03;2.42;;;8.70;99.90;;;;;;4972916;28;20031;-73
2021/12/31 07:36:03;;;;;;;3.83;2.30;;;8.60;99.90;;;;;;4969633;28;20422;-73
2021/12/31 07:38:35;;;;;;;5.78;2.58;;;8.60;99.90;;;;;;4971267;28;20534;-73
2021/12/31 07:41:01;;;;;;;3.28;2.15;;;8.60;99.90;;;;;;4967903;28;20067;-73
2021/12/31 07:43:27;;;;;;;4.10;2.05;;;8.60;99.90;;;;;;4985442;28;20027;-73
2021/12/31 07:45:53;;;;;;;2.83;2.22;;;8.50;99.90;;;;;;4970178;28;20109;-73
2021/12/31 07:48:19;;;;;;;4.03;2.15;;;8.70;99.90;;;;;;4970601;28;20105;-73
2021/12/31 07:50:45;;;;;;;3.67;2.33;;;8.80;99.90;;;;;;4967988;28;20442;-73
2021/12/31 07:53:11;;;;;;;3.35;2.35;;;8.90;99.90;;;;;;4971893;28;20038;-73
2021/12/31 07:55:36;;;;;;;2.53;2.00;;;8.90;99.90;;;;;;4970214;28;20031;-73
2021/12/31 07:58:03;;;;;;;5.65;3.00;;;8.90;99.90;;;;;;4968605;28;20041;-73
2021/12/31 08:00:29;;;;;;;6.72;2.63;;;8.90;99.90;;;;;;4970997;28;20107;-73
2021/12/31 08:02:55;;;;;;;5.28;2.50;;;8.90;99.90;;;;;;4967682;28;20077;-75
2021/12/31 08:05:22;;;;;;;2.67;2.13;;;8.80;99.90;;;;;;4966457;28;20027;-72
2021/12/31 08:07:48;;;;;;;3.33;2.65;;;8.90;99.90;;;;;;4967405;28;20034;-72
2021/12/31 08:10:13;;;;;;;3.17;2.25;;;9.20;99.90;;;;;;4968302;28;20030;-72
2021/12/31 08:12:39;;;;;;;3.67;2.65;;;9.40;99.90;;;;;;4970408;28;20027;-72
2021/12/31 08:15:05;;;;;;;3.28;2.50;;;9.40;99.90;;;;;;4971494;28;20026;-72
2021/12/31 08:17:31;;;;;;;2.13;1.92;;;9.60;99.90;;;;;;4974653;28;20034;-71
2021/12/31 08:19:57;;;;;;;4.60;2.45;;;9.60;99.90;;;;;;4978986;28;20019;-72
2021/12/31 08:22:24;;;;;;;3.90;2.50;;;9.70;99.90;;;;;;4978447;28;20486;-72
2021/12/31 08:24:50;;;;;;;3.00;2.53;;;9.90;99.90;;;;;;4971027;28;20425;-72
2021/12/31 08:27:15;;;;;;;3.97;2.63;;;10.00;99.90;;;;;;4965995;28;20034;-72
2021/12/31 08:29:41;;;;;;;3.95;2.83;;;10.00;99.90;;;;;;4970240;28;20037;-72
2021/12/31 08:32:06;;;;;;;3.83;2.67;;;10.10;99.90;;;;;;4969721;28;20054;-72
2021/12/31 08:34:32;;;;;;;3.17;2.30;;;10.10;99.90;;;;;;4974422;28;20101;-72
2021/12/31 08:36:58;;;;;;;3.28;2.97;;;10.00;99.90;;;;;;4995691;23;20050;-73
2021/12/31 08:39:23;;;;;;;5.38;3.03;;;10.00;99.90;;;;;;4969753;28;20105;-72
2021/12/31 08:41:49;;;;;;;4.00;3.20;;;10.00;99.90;;;;;;4972086;28;20078;-73
2021/12/31 08:44:15;;;;;;;4.45;2.97;;;10.10;99.90;;;;;;4972787;28;20027;-73
2021/12/31 08:46:41;;;;;;;3.33;2.95;;;10.10;99.90;;;;;;4963871;28;20537;-74
2021/12/31 08:49:07;;;;;;;5.47;2.97;;;10.20;99.90;;;;;;4953974;29;20035;-74
2021/12/31 08:51:33;;;;;;;4.22;3.10;;;10.30;99.90;;;;;;4952299;29;20491;-74
2021/12/31 08:53:59;;;;;;;3.20;2.60;;;10.10;99.90;;;;;;4950788;28;20106;-72
2021/12/31 08:56:25;;;;;;;3.80;2.78;;;10.10;99.90;;;;;;4961982;28;20483;-74
2021/12/31 08:58:51;;;;;;;7.78;2.80;;;10.20;99.90;;;;;;4945309;29;20030;-74
2021/12/31 09:01:16;;;;;;;5.03;2.80;;;10.10;99.90;;;;;;4958207;28;20023;-73
2021/12/31 09:03:42;;;;;;;3.83;2.90;;;10.30;99.90;;;;;;4957110;28;20079;-73
2021/12/31 09:06:08;;;;;;;3.15;2.85;;;10.40;99.90;;;;;;4956887;29;20031;-73
2021/12/31 09:08:34;;;;;;;3.30;3.00;;;10.40;99.90;;;;;;4951297;29;20031;-73
2021/12/31 09:11:00;;;;;;;4.95;2.72;;;10.60;99.90;;;;;;4953982;28;20024;-76
2021/12/31 09:13:27;;;;;;;3.15;2.53;;;10.60;99.90;;;;;;4959499;28;20031;-73
2021/12/31 09:15:54;;;;;;;3.95;2.90;;;10.50;99.90;;;;;;4953954;28;20028;-75
2021/12/31 09:18:20;;;;;;;3.55;3.20;;;10.50;99.90;;;;;;4955893;28;20031;-73
2021/12/31 09:20:46;;;;;;;4.35;2.95;;;10.60;99.90;;;;;;4953699;29;20130;-73
2021/12/31 09:23:12;;;;;;;4.05;3.10;;;10.80;99.90;;;;;;4954550;29;20031;-73
2021/12/31 09:25:38;;;;;;;2.58;2.38;;;10.90;99.90;;;;;;4953151;28;20031;-72
2021/12/31 09:28:03;;;;;;;5.40;3.60;;;11.00;99.90;;;;;;4950036;28;20483;-73
2021/12/31 09:30:29;;;;;;;2.85;2.65;;;11.20;99.90;;;;;;4953603;28;20034;-73
2021/12/31 09:32:55;;;;;;;4.70;2.78;;;11.20;99.90;;;;;;4953563;29;20027;-73
2021/12/31 09:35:21;;;;;;;3.03;2.67;;;11.00;99.90;;;;;;4955643;28;20558;-73
2021/12/31 09:37:46;;;;;;;2.85;2.60;;;11.20;99.90;;;;;;4955250;28;20031;-74
2021/12/31 09:40:15;;;;;;;3.35;2.78;;;11.40;99.90;;;;;;4948699;28;20026;-73
2021/12/31 09:43:08;;;;;;;4.45;3.00;;;11.40;99.90;;;;;;4959084;29;20475;-73
2021/12/31 09:45:39;;;;;;;3.10;2.70;;;11.60;99.90;;;;;;4958609;28;20053;-73
2021/12/31 09:48:12;;;;;;;;;;;11.60;99.90;;;;;;4957427;28;20067;-72
2021/12/31 09:50:41;;;;;;;3.65;3.08;;;11.70;99.90;;;;;;4957260;29;19918;-72
2021/12/31 09:53:08;;;;;;;4.60;3.40;;;11.80;99.90;;;;;;4955055;29;20055;-72
2021/12/31 09:55:45;;;;;;;5.00;3.80;;;11.80;99.90;;;;;;4957179;29;20464;-73
2021/12/31 09:58:12;;;;;;;4.50;3.42;;;11.70;99.90;;;;;;4956255;29;20031;-72
2021/12/31 10:00:47;;;;;;;3.60;3.30;;;11.80;99.90;;;;;;4958385;29;20023;-73
2021/12/31 10:03:28;;;;;;;4.30;3.90;;;11.80;99.90;;;;;;4957715;28;20054;-72
2021/12/31 10:05:57;;;;;;;3.60;3.30;;;11.90;99.90;;;;;;4954759;29;20019;-72
2021/12/31 10:08:23;;;;;;;4.40;3.70;;;12.00;99.90;;;;;;4953385;28;20514;-72
2021/12/31 10:11:05;;;;;;;5.18;3.50;;;12.10;99.90;;;;;;4959462;29;20020;-74
2021/12/31 10:13:32;;;;;;;3.67;3.38;;;12.10;99.90;;;;;;4959506;29;20026;-74
2021/12/31 10:15:58;;;;;;;5.65;3.50;;;12.10;99.90;;;;;;4956578;28;20034;-76
2021/12/31 10:18:38;;;;;;;4.90;4.28;;;12.20;99.90;;;;;;4956836;29;20076;-75
2021/12/31 10:21:05;;;;;;;4.22;3.53;;;12.30;99.90;;;;;;4957149;29;20027;-75
2021/12/31 10:23:36;;;;;;;4.55;2.67;;;12.30;99.90;;;;;;4950199;28;20035;-74
2021/12/31 10:26:15;;;;;;;5.45;3.50;;;12.40;99.90;;;;;;4956773;28;20031;-78
2021/12/31 10:28:55;;;;;;;5.43;3.88;;;12.30;99.90;;;;;;4958425;29;20027;-75
2021/12/31 10:31:20;;;;;;;3.72;3.28;;;12.40;99.90;;;;;;4951611;28;20062;-76
2021/12/31 10:35:14;;;;;;;4.70;3.25;;;12.50;99.90;;;;;;5068479;27;2540982;-77
2021/12/31 10:37:52;;;;;;;5.63;3.85;;;12.50;99.90;;;;;;5138592;28;20056;-76
2021/12/31 10:40:43;;;;;;;3.50;3.20;;;12.60;99.90;;;;;;5131793;28;20012;-75
2021/12/31 10:43:16;;;;;;;4.13;3.80;;;12.70;99.90;;;;;;5112884;28;20702;-76
2021/12/31 10:46:03;;;;;;;4.18;3.78;;;12.70;99.90;;;;;;5119066;28;20277;-74
2021/12/31 10:48:42;;;;;;;4.00;3.58;;;12.80;99.90;;;;;;5118211;28;20020;-73
2021/12/31 10:51:09;;;;;;;3.95;3.53;;;12.80;99.90;;;;;;5130187;28;20065;-75
2021/12/31 10:53:37;;;;;;;3.75;3.35;;;12.80;99.90;;;;;;5120318;28;20035;-74
2021/12/31 10:56:06;;;;;;;3.50;3.20;;;12.90;99.90;;;;;;5128054;28;20462;-76
2021/12/31 10:58:32;;;;;;;3.63;3.33;;;12.90;99.90;;;;;;5136176;28;20019;-74
2021/12/31 11:00:59;;;;;;;3.35;3.05;;;13.00;99.90;;;;;;5138432;28;20070;-74
2021/12/31 11:03:25;;;;;;;3.65;3.35;;;12.90;99.90;;;;;;5110823;28;20023;-74
2021/12/31 11:05:52;;;;;;;3.22;2.72;;;12.90;99.90;;;;;;5106260;28;20062;-75
2021/12/31 11:08:19;;;;;;;4.20;3.78;;;13.00;99.90;;;;;;5128859;28;20026;-75
2021/12/31 11:10:45;;;;;;;4.32;3.20;;;13.00;99.90;;;;;;5127556;28;20027;-74
2021/12/31 11:13:19;;;;;;;3.28;2.97;;;13.10;99.90;;;;;;5125249;28;20032;-74
2021/12/31 11:15:47;;;;;;;2.70;2.35;;;13.20;99.90;;;;;;5123634;28;20107;-74
2021/12/31 11:18:18;;;;;;;3.17;2.90;;;13.30;99.90;;;;;;5127068;28;20663;-74
2021/12/31 11:20:46;;;;;;;3.63;2.65;;;13.30;99.90;;;;;;5125297;28;20065;-74
2021/12/31 11:23:12;;;;;;;2.63;2.42;;;13.50;99.90;;;;;;5123268;28;20555;-74
2021/12/31 11:26:13;;;;;;;2.80;2.60;;;13.40;99.90;;;;;;5104281;28;20032;-74
2021/12/31 11:28:43;;;;;;;2.95;2.55;;;13.40;99.90;;;;;;5105728;28;20038;-73
2021/12/31 11:31:18;;;;;;;5.13;2.67;;;13.40;99.90;;;;;;5126145;28;20046;-74
2021/12/31 11:34:08;;;;;;;3.08;2.70;;;13.40;99.90;;;;;;5132701;28;20045;-74
2021/12/31 11:36:42;;;;;;;2.40;2.15;;;13.50;99.90;;;;;;5107389;28;20061;-74
2021/12/31 11:39:22;;;;;;;2.83;2.42;;;13.50;99.90;;;;;;5114931;28;20035;-74
2021/12/31 11:41:48;;;;;;;3.67;2.63;;;13.60;99.90;;;;;;5124220;28;20041;-76
2021/12/31 11:44:14;;;;;;;2.38;2.17;;;13.60;99.90;;;;;;5098922;28;20035;-75
2021/12/31 11:46:47;;;;;;;4.05;2.33;;;13.60;99.90;;;;;;5105698;28;20024;-76
2021/12/31 11:49:19;;;;;;;2.50;2.30;;;13.70;99.90;;;;;;5100033;28;20020;-76
2021/12/31 11:51:58;;;;;;;2.38;2.17;;;13.70;99.90;;;;;;5108700;28;20023;-74
2021/12/31 11:54:24;;;;;;;4.40;2.58;;;13.80;99.90;;;;;;5104439;28;20084;-75
2021/12/31 11:56:51;;;;;;;2.03;1.70;;;13.70;99.90;;;;;;5106438;28;20020;-75
2021/12/31 11:59:17;;;;;;;2.95;2.15;;;13.80;99.90;;;;;;5092550;28;20155;-77
2021/12/31 12:02:08;;;;;;;2.47;2.25;;;13.90;99.90;;;;;;5110945;28;20494;-75
2021/12/31 12:04:39;;;;;;;2.75;2.30;;;14.10;99.90;;;;;;5112840;28;20081;-75
2021/12/31 12:07:32;;;;;;;2.38;2.03;;;14.20;99.90;;;;;;5104946;28;20028;-74
2021/12/31 12:09:58;;;;;;;2.78;2.20;;;14.30;99.90;;;;;;5108129;28;20035;-75
2021/12/31 12:12:35;;;;;;;3.58;2.53;;;14.40;99.90;;;;;;5108034;28;20073;-75
2021/12/31 12:15:14;;;;;;;4.35;2.75;;;14.30;99.90;;;;;;5109668;28;20087;-75
2021/12/31 12:17:43;;;;;;;3.40;1.55;;;14.30;99.90;;;;;;5106966;28;20474;-74
2021/12/31 12:20:18;;;;;;;2.13;1.92;;;14.30;99.90;;;;;;5112010;28;20054;-75
2021/12/31 12:22:56;;;;;;;2.47;1.83;;;14.30;99.90;;;;;;5104689;28;20024;-74
2021/12/31 12:25:27;;;;;;;1.55;1.40;;;14.40;99.90;;;;;;5086928;28;20513;-75
2021/12/31 12:27:54;;;;;;;1.95;1.70;;;14.40;99.90;;;;;;5109641;28;20091;-75
2021/12/31 12:30:20;;;;;;;2.85;1.73;;;14.40;99.90;;;;;;5107958;28;20031;-75
2021/12/31 12:35:16;;;;;;;4.22;3.83;;;14.40;99.90;;;;;;5104417;28;20040;-76
2021/12/31 12:37:42;;;;;;;1.90;1.77;;;14.50;99.90;;;;;;5105413;28;22298;-74
2021/12/31 12:40:09;;;;;;;2.10;1.85;;;14.50;99.90;;;;;;5103108;28;20024;-75
2021/12/31 12:42:35;;;;;;;1.27;1.15;;;14.60;99.90;;;;;;5101134;28;20020;-74
2021/12/31 12:45:08;;;;;;;2.40;2.20;;;14.60;99.90;;;;;;5115806;28;20027;-74
2021/12/31 12:47:37;;;;;;;2.92;1.90;;;14.70;99.90;;;;;;5105871;28;20095;-75
2021/12/31 12:50:07;;;;;;;2.25;2.05;;;14.60;99.90;;;;;;5102316;28;20039;-76
2021/12/31 12:52:33;;;;;;;2.47;2.28;;;14.60;99.90;;;;;;5105992;28;20024;-75
2021/12/31 12:55:08;;;;;;;1.95;1.83;;;14.50;99.90;;;;;;5104381;28;20036;-76
2021/12/31 12:57:34;;;;;;;2.45;2.17;;;14.50;99.90;;;;;;5102536;28;20016;-75
2021/12/31 13:00:00;;;;;;;2.35;2.15;;;14.40;99.90;;;;;;5108127;28;20054;-76
2021/12/31 13:02:42;;;;;;;2.45;2.20;;;14.40;99.90;;;;;;5103527;28;20029;-75